sensor_id;sensor_type;location;lat;lon;timestamp;temperature;humidity
38325;DHT22;24126;52.672;13.622;2023-09-19T00:00:44;23.60;69.80
38325;DHT22;24126;52.672;13.622;2023-09-19T00:03:12;23.60;69.90
38325;DHT22;24126;52.672;13.622;2023-09-19T00:05:40;23.50;70.00
38325;DHT22;24126;52.672;13.622;2023-09-19T00:08:10;23.50;70.10
38325;DHT22;24126;52.672;13.622;2023-09-19T00:10:39;23.40;70.20
38325;DHT22;24126;52.672;13.622;2023-09-19T00:13:07;23.40;70.40
38325;DHT22;24126;52.672;13.622;2023-09-19T00:15:42;23.40;70.40
38325;DHT22;24126;52.672;13.622;2023-09-19T00:18:14;23.40;70.30
38325;DHT22;24126;52.672;13.622;2023-09-19T00:20:43;23.30;70.90
38325;DHT22;24126;52.672;13.622;2023-09-19T00:23:13;23.30;70.40
38325;DHT22;24126;52.672;13.622;2023-09-19T00:25:40;23.20;70.50
38325;DHT22;24126;52.672;13.622;2023-09-19T00:28:07;23.20;70.70
38325;DHT22;24126;52.672;13.622;2023-09-19T00:30:35;23.10;70.90
38325;DHT22;24126;52.672;13.622;2023-09-19T00:33:04;23.10;71.10
38325;DHT22;24126;52.672;13.622;2023-09-19T00:35:33;23.10;71.30
38325;DHT22;24126;52.672;13.622;2023-09-19T00:38:00;23.00;71.30
38325;DHT22;24126;52.672;13.622;2023-09-19T00:40:29;23.00;71.40
38325;DHT22;24126;52.672;13.622;2023-09-19T00:42:59;23.00;71.50
38325;DHT22;24126;52.672;13.622;2023-09-19T00:45:26;23.00;71.60
38325;DHT22;24126;52.672;13.622;2023-09-19T00:47:54;22.90;71.50
38325;DHT22;24126;52.672;13.622;2023-09-19T00:50:23;22.90;71.50
38325;DHT22;24126;52.672;13.622;2023-09-19T00:52:53;22.90;71.50
38325;DHT22;24126;52.672;13.622;2023-09-19T00:55:21;22.90;71.60
38325;DHT22;24126;52.672;13.622;2023-09-19T00:57:49;22.90;71.60
38325;DHT22;24126;52.672;13.622;2023-09-19T01:00:16;22.80;71.70
38325;DHT22;24126;52.672;13.622;2023-09-19T01:02:46;22.80;71.70
38325;DHT22;24126;52.672;13.622;2023-09-19T01:05:13;22.80;71.80
38325;DHT22;24126;52.672;13.622;2023-09-19T01:07:41;22.80;71.80
38325;DHT22;24126;52.672;13.622;2023-09-19T01:10:08;22.80;71.80
38325;DHT22;24126;52.672;13.622;2023-09-19T01:15:10;22.80;71.80
38325;DHT22;24126;52.672;13.622;2023-09-19T01:17:46;22.80;71.90
38325;DHT22;24126;52.672;13.622;2023-09-19T01:20:17;22.80;71.90
38325;DHT22;24126;52.672;13.622;2023-09-19T01:30:35;22.70;71.80
38325;DHT22;24126;52.672;13.622;2023-09-19T01:33:04;22.70;71.90
38325;DHT22;24126;52.672;13.622;2023-09-19T01:35:32;22.60;71.90
38325;DHT22;24126;52.672;13.622;2023-09-19T01:38:00;22.60;72.00
38325;DHT22;24126;52.672;13.622;2023-09-19T01:40:27;22.60;71.90
38325;DHT22;24126;52.672;13.622;2023-09-19T01:42:58;22.60;71.90
38325;DHT22;24126;52.672;13.622;2023-09-19T01:45:29;22.60;71.90
38325;DHT22;24126;52.672;13.622;2023-09-19T01:48:05;22.60;71.80
38325;DHT22;24126;52.672;13.622;2023-09-19T01:53:10;22.60;71.80
38325;DHT22;24126;52.672;13.622;2023-09-19T01:55:46;22.70;71.90
38325;DHT22;24126;52.672;13.622;2023-09-19T01:58:24;22.60;71.80
38325;DHT22;24126;52.672;13.622;2023-09-19T02:00:55;22.70;71.80
38325;DHT22;24126;52.672;13.622;2023-09-19T02:03:24;22.70;71.80
38325;DHT22;24126;52.672;13.622;2023-09-19T02:05:51;22.70;71.70
38325;DHT22;24126;52.672;13.622;2023-09-19T02:08:20;22.70;71.70
38325;DHT22;24126;52.672;13.622;2023-09-19T02:10:49;22.80;71.80
38325;DHT22;24126;52.672;13.622;2023-09-19T02:13:17;22.70;71.60
38325;DHT22;24126;52.672;13.622;2023-09-19T02:15:45;22.70;71.50
38325;DHT22;24126;52.672;13.622;2023-09-19T02:18:12;22.70;71.40
38325;DHT22;24126;52.672;13.622;2023-09-19T02:20:40;22.80;71.40
38325;DHT22;24126;52.672;13.622;2023-09-19T02:23:09;22.70;71.10
38325;DHT22;24126;52.672;13.622;2023-09-19T02:25:36;22.70;71.10
38325;DHT22;24126;52.672;13.622;2023-09-19T02:28:03;22.70;71.00
38325;DHT22;24126;52.672;13.622;2023-09-19T02:30:31;22.70;71.00
38325;DHT22;24126;52.672;13.622;2023-09-19T02:32:58;22.70;71.00
38325;DHT22;24126;52.672;13.622;2023-09-19T02:35:27;22.70;70.90
38325;DHT22;24126;52.672;13.622;2023-09-19T02:37:58;22.60;70.90
38325;DHT22;24126;52.672;13.622;2023-09-19T02:40:25;22.60;70.90
38325;DHT22;24126;52.672;13.622;2023-09-19T02:42:53;22.60;70.90
38325;DHT22;24126;52.672;13.622;2023-09-19T02:45:22;22.60;70.90
38325;DHT22;24126;52.672;13.622;2023-09-19T02:47:50;22.60;70.90
38325;DHT22;24126;52.672;13.622;2023-09-19T02:50:17;22.60;70.90
38325;DHT22;24126;52.672;13.622;2023-09-19T02:52:45;22.60;70.90
38325;DHT22;24126;52.672;13.622;2023-09-19T02:55:13;22.60;70.90
38325;DHT22;24126;52.672;13.622;2023-09-19T02:57:46;22.60;70.90
38325;DHT22;24126;52.672;13.622;2023-09-19T03:00:14;22.60;70.90
38325;DHT22;24126;52.672;13.622;2023-09-19T03:02:41;22.60;70.90
38325;DHT22;24126;52.672;13.622;2023-09-19T03:05:10;22.60;70.90
38325;DHT22;24126;52.672;13.622;2023-09-19T03:07:38;22.50;70.80
38325;DHT22;24126;52.672;13.622;2023-09-19T03:10:06;22.60;70.90
38325;DHT22;24126;52.672;13.622;2023-09-19T03:12:34;22.60;70.90
38325;DHT22;24126;52.672;13.622;2023-09-19T03:15:01;22.50;70.80
38325;DHT22;24126;52.672;13.622;2023-09-19T03:17:30;22.50;70.80
38325;DHT22;24126;52.672;13.622;2023-09-19T03:19:58;22.50;70.80
38325;DHT22;24126;52.672;13.622;2023-09-19T03:22:26;22.40;70.80
38325;DHT22;24126;52.672;13.622;2023-09-19T03:24:54;22.40;71.00
38325;DHT22;24126;52.672;13.622;2023-09-19T03:27:21;22.40;71.00
38325;DHT22;24126;52.672;13.622;2023-09-19T03:29:49;22.30;71.10
38325;DHT22;24126;52.672;13.622;2023-09-19T03:32:17;22.30;71.10
38325;DHT22;24126;52.672;13.622;2023-09-19T03:34:44;22.30;71.20
38325;DHT22;24126;52.672;13.622;2023-09-19T03:37:15;22.30;71.20
38325;DHT22;24126;52.672;13.622;2023-09-19T03:39:43;22.30;71.20
38325;DHT22;24126;52.672;13.622;2023-09-19T03:42:10;22.30;71.20
38325;DHT22;24126;52.672;13.622;2023-09-19T03:44:37;22.30;71.20
38325;DHT22;24126;52.672;13.622;2023-09-19T03:47:04;22.30;71.20
38325;DHT22;24126;52.672;13.622;2023-09-19T03:49:33;22.30;71.20
38325;DHT22;24126;52.672;13.622;2023-09-19T03:52:01;22.30;71.10
38325;DHT22;24126;52.672;13.622;2023-09-19T03:54:28;22.30;71.20
38325;DHT22;24126;52.672;13.622;2023-09-19T03:56:55;22.30;71.20
38325;DHT22;24126;52.672;13.622;2023-09-19T03:59:22;22.30;71.40
38325;DHT22;24126;52.672;13.622;2023-09-19T04:01:49;22.20;71.30
38325;DHT22;24126;52.672;13.622;2023-09-19T04:04:21;22.20;71.40
38325;DHT22;24126;52.672;13.622;2023-09-19T04:06:51;22.20;71.40
38325;DHT22;24126;52.672;13.622;2023-09-19T04:09:18;22.20;71.40
38325;DHT22;24126;52.672;13.622;2023-09-19T04:11:45;22.10;71.30
38325;DHT22;24126;52.672;13.622;2023-09-19T04:14:12;22.20;71.30
38325;DHT22;24126;52.672;13.622;2023-09-19T04:16:39;22.20;71.20
38325;DHT22;24126;52.672;13.622;2023-09-19T04:19:06;22.20;71.10
38325;DHT22;24126;52.672;13.622;2023-09-19T04:21:34;22.10;70.90
38325;DHT22;24126;52.672;13.622;2023-09-19T04:24:01;22.10;70.80
38325;DHT22;24126;52.672;13.622;2023-09-19T04:26:28;22.10;70.70
38325;DHT22;24126;52.672;13.622;2023-09-19T04:28:55;22.10;70.40
38325;DHT22;24126;52.672;13.622;2023-09-19T04:31:22;22.10;70.40
38325;DHT22;24126;52.672;13.622;2023-09-19T04:33:50;22.10;70.30
38325;DHT22;24126;52.672;13.622;2023-09-19T04:36:17;22.00;70.20
38325;DHT22;24126;52.672;13.622;2023-09-19T04:38:44;22.00;70.10
38325;DHT22;24126;52.672;13.622;2023-09-19T04:41:11;22.00;70.00
38325;DHT22;24126;52.672;13.622;2023-09-19T04:43:39;22.00;69.90
38325;DHT22;24126;52.672;13.622;2023-09-19T04:46:06;22.00;69.70
38325;DHT22;24126;52.672;13.622;2023-09-19T04:48:33;22.00;69.80
38325;DHT22;24126;52.672;13.622;2023-09-19T04:51:01;22.00;69.60
38325;DHT22;24126;52.672;13.622;2023-09-19T04:53:29;22.00;69.60
38325;DHT22;24126;52.672;13.622;2023-09-19T04:55:56;21.90;69.60
38325;DHT22;24126;52.672;13.622;2023-09-19T04:58:23;21.90;69.60
38325;DHT22;24126;52.672;13.622;2023-09-19T05:00:51;21.90;69.50
38325;DHT22;24126;52.672;13.622;2023-09-19T05:03:18;21.90;69.50
38325;DHT22;24126;52.672;13.622;2023-09-19T05:05:45;21.90;69.40
38325;DHT22;24126;52.672;13.622;2023-09-19T05:08:13;21.90;69.30
38325;DHT22;24126;52.672;13.622;2023-09-19T05:10:40;21.90;69.30
38325;DHT22;24126;52.672;13.622;2023-09-19T05:13:07;21.80;69.30
38325;DHT22;24126;52.672;13.622;2023-09-19T05:15:35;21.80;69.20
38325;DHT22;24126;52.672;13.622;2023-09-19T05:18:02;21.80;69.20
38325;DHT22;24126;52.672;13.622;2023-09-19T05:20:29;21.80;69.10
38325;DHT22;24126;52.672;13.622;2023-09-19T05:23:05;21.80;69.00
38325;DHT22;24126;52.672;13.622;2023-09-19T05:25:34;21.70;69.00
38325;DHT22;24126;52.672;13.622;2023-09-19T05:28:03;21.80;69.00
38325;DHT22;24126;52.672;13.622;2023-09-19T05:30:31;21.80;69.00
38325;DHT22;24126;52.672;13.622;2023-09-19T05:32:59;21.70;68.90
38325;DHT22;24126;52.672;13.622;2023-09-19T05:35:26;21.70;68.80
38325;DHT22;24126;52.672;13.622;2023-09-19T05:37:53;21.70;68.80
38325;DHT22;24126;52.672;13.622;2023-09-19T05:40:21;21.70;68.70
38325;DHT22;24126;52.672;13.622;2023-09-19T05:42:48;21.70;68.70
38325;DHT22;24126;52.672;13.622;2023-09-19T05:45:16;21.70;68.80
38325;DHT22;24126;52.672;13.622;2023-09-19T05:47:48;21.70;68.70
38325;DHT22;24126;52.672;13.622;2023-09-19T05:50:16;21.70;68.70
38325;DHT22;24126;52.672;13.622;2023-09-19T05:52:47;21.70;68.60
38325;DHT22;24126;52.672;13.622;2023-09-19T05:55:18;21.70;68.70
38325;DHT22;24126;52.672;13.622;2023-09-19T05:57:49;21.70;68.50
38325;DHT22;24126;52.672;13.622;2023-09-19T06:00:23;21.80;68.50
38325;DHT22;24126;52.672;13.622;2023-09-19T06:02:53;21.80;68.40
38325;DHT22;24126;52.672;13.622;2023-09-19T06:05:21;21.80;68.30
38325;DHT22;24126;52.672;13.622;2023-09-19T06:07:48;21.80;68.30
38325;DHT22;24126;52.672;13.622;2023-09-19T06:10:16;21.80;68.20
38325;DHT22;24126;52.672;13.622;2023-09-19T06:12:43;21.90;68.30
38325;DHT22;24126;52.672;13.622;2023-09-19T06:15:11;21.90;68.30
38325;DHT22;24126;52.672;13.622;2023-09-19T06:17:47;21.90;68.30
38325;DHT22;24126;52.672;13.622;2023-09-19T06:20:15;21.90;68.30
38325;DHT22;24126;52.672;13.622;2023-09-19T06:22:43;22.00;68.20
38325;DHT22;24126;52.672;13.622;2023-09-19T06:25:10;22.00;68.20
38325;DHT22;24126;52.672;13.622;2023-09-19T06:27:41;22.00;68.20
38325;DHT22;24126;52.672;13.622;2023-09-19T06:30:10;22.10;68.30
38325;DHT22;24126;52.672;13.622;2023-09-19T06:32:39;22.10;68.20
38325;DHT22;24126;52.672;13.622;2023-09-19T06:35:06;22.10;68.30
38325;DHT22;24126;52.672;13.622;2023-09-19T06:37:34;22.20;68.20
38325;DHT22;24126;52.672;13.622;2023-09-19T06:40:08;22.20;68.10
38325;DHT22;24126;52.672;13.622;2023-09-19T06:42:42;22.30;68.20
38325;DHT22;24126;52.672;13.622;2023-09-19T06:45:10;22.30;68.10
38325;DHT22;24126;52.672;13.622;2023-09-19T06:47:39;22.40;68.00
38325;DHT22;24126;52.672;13.622;2023-09-19T06:50:06;22.40;67.80
38325;DHT22;24126;52.672;13.622;2023-09-19T06:52:40;22.50;67.80
38325;DHT22;24126;52.672;13.622;2023-09-19T06:55:07;22.60;67.40
38325;DHT22;24126;52.672;13.622;2023-09-19T06:57:35;22.70;67.40
38325;DHT22;24126;52.672;13.622;2023-09-19T07:00:02;22.90;67.20
38325;DHT22;24126;52.672;13.622;2023-09-19T07:02:35;23.00;66.70
38325;DHT22;24126;52.672;13.622;2023-09-19T07:05:02;23.20;66.20
38325;DHT22;24126;52.672;13.622;2023-09-19T07:07:29;23.20;65.90
38325;DHT22;24126;52.672;13.622;2023-09-19T07:09:56;23.30;65.70
38325;DHT22;24126;52.672;13.622;2023-09-19T07:12:23;23.30;65.40
38325;DHT22;24126;52.672;13.622;2023-09-19T07:14:50;23.30;65.40
38325;DHT22;24126;52.672;13.622;2023-09-19T07:17:17;23.40;65.90
38325;DHT22;24126;52.672;13.622;2023-09-19T07:19:45;23.40;66.00
38325;DHT22;24126;52.672;13.622;2023-09-19T07:22:14;23.60;65.80
38325;DHT22;24126;52.672;13.622;2023-09-19T07:24:41;23.70;65.40
38325;DHT22;24126;52.672;13.622;2023-09-19T07:27:08;23.90;65.30
38325;DHT22;24126;52.672;13.622;2023-09-19T07:29:35;24.00;64.80
38325;DHT22;24126;52.672;13.622;2023-09-19T07:32:04;24.10;64.10
38325;DHT22;24126;52.672;13.622;2023-09-19T07:34:31;24.20;63.40
38325;DHT22;24126;52.672;13.622;2023-09-19T07:36:58;24.20;63.00
38325;DHT22;24126;52.672;13.622;2023-09-19T07:39:25;24.20;62.80
38325;DHT22;24126;52.672;13.622;2023-09-19T07:41:52;24.20;62.60
38325;DHT22;24126;52.672;13.622;2023-09-19T07:44:19;24.20;62.50
38325;DHT22;24126;52.672;13.622;2023-09-19T07:46:47;24.20;62.10
38325;DHT22;24126;52.672;13.622;2023-09-19T07:49:16;24.30;62.00
38325;DHT22;24126;52.672;13.622;2023-09-19T07:51:44;24.30;61.80
38325;DHT22;24126;52.672;13.622;2023-09-19T07:54:12;24.40;61.50
38325;DHT22;24126;52.672;13.622;2023-09-19T07:56:40;24.40;60.70
38325;DHT22;24126;52.672;13.622;2023-09-19T07:59:07;24.50;59.70
38325;DHT22;24126;52.672;13.622;2023-09-19T08:01:37;24.40;59.30
38325;DHT22;24126;52.672;13.622;2023-09-19T08:04:05;24.40;59.20
38325;DHT22;24126;52.672;13.622;2023-09-19T08:06:32;24.30;59.30
38325;DHT22;24126;52.672;13.622;2023-09-19T08:08:59;24.30;59.10
38325;DHT22;24126;52.672;13.622;2023-09-19T08:11:33;24.40;59.40
38325;DHT22;24126;52.672;13.622;2023-09-19T08:14:00;24.60;59.40
38325;DHT22;24126;52.672;13.622;2023-09-19T08:16:27;24.70;59.00
38325;DHT22;24126;52.672;13.622;2023-09-19T08:18:54;24.90;58.10
38325;DHT22;24126;52.672;13.622;2023-09-19T08:21:22;25.00;58.40
38325;DHT22;24126;52.672;13.622;2023-09-19T08:23:50;25.10;58.10
38325;DHT22;24126;52.672;13.622;2023-09-19T08:26:17;25.20;57.50
38325;DHT22;24126;52.672;13.622;2023-09-19T08:28:45;25.30;57.50
38325;DHT22;24126;52.672;13.622;2023-09-19T08:31:12;25.40;56.20
38325;DHT22;24126;52.672;13.622;2023-09-19T08:33:39;25.40;55.50
38325;DHT22;24126;52.672;13.622;2023-09-19T08:36:07;25.40;55.70
38325;DHT22;24126;52.672;13.622;2023-09-19T08:38:37;25.40;55.70
38325;DHT22;24126;52.672;13.622;2023-09-19T08:41:07;25.50;55.50
38325;DHT22;24126;52.672;13.622;2023-09-19T08:43:35;25.60;55.50
38325;DHT22;24126;52.672;13.622;2023-09-19T08:48:32;25.90;54.40
38325;DHT22;24126;52.672;13.622;2023-09-19T08:51:06;26.10;53.70
38325;DHT22;24126;52.672;13.622;2023-09-19T08:53:49;26.30;53.10
38325;DHT22;24126;52.672;13.622;2023-09-19T08:56:18;26.50;53.30
38325;DHT22;24126;52.672;13.622;2023-09-19T08:58:46;26.70;53.00
38325;DHT22;24126;52.672;13.622;2023-09-19T09:01:15;26.90;52.80
38325;DHT22;24126;52.672;13.622;2023-09-19T09:03:45;27.10;51.50
38325;DHT22;24126;52.672;13.622;2023-09-19T09:06:13;27.20;51.70
38325;DHT22;24126;52.672;13.622;2023-09-19T09:08:41;27.30;50.90
38325;DHT22;24126;52.672;13.622;2023-09-19T09:11:09;27.40;50.80
38325;DHT22;24126;52.672;13.622;2023-09-19T09:13:37;27.60;50.60
38325;DHT22;24126;52.672;13.622;2023-09-19T09:16:04;27.80;50.00
38325;DHT22;24126;52.672;13.622;2023-09-19T09:18:31;27.80;49.60
38325;DHT22;24126;52.672;13.622;2023-09-19T09:20:58;27.90;49.50
38325;DHT22;24126;52.672;13.622;2023-09-19T09:23:26;27.80;49.30
38325;DHT22;24126;52.672;13.622;2023-09-19T09:25:55;27.90;49.70
38325;DHT22;24126;52.672;13.622;2023-09-19T09:28:26;28.00;49.40
38325;DHT22;24126;52.672;13.622;2023-09-19T09:30:57;28.20;49.40
38325;DHT22;24126;52.672;13.622;2023-09-19T09:33:25;28.40;49.40
38325;DHT22;24126;52.672;13.622;2023-09-19T09:35:56;28.70;49.10
38325;DHT22;24126;52.672;13.622;2023-09-19T09:38:26;29.00;48.50
38325;DHT22;24126;52.672;13.622;2023-09-19T09:40:57;29.30;48.30
38325;DHT22;24126;52.672;13.622;2023-09-19T09:43:33;29.60;47.70
38325;DHT22;24126;52.672;13.622;2023-09-19T09:46:12;29.80;47.10
38325;DHT22;24126;52.672;13.622;2023-09-19T09:48:57;29.80;46.20
38325;DHT22;24126;52.672;13.622;2023-09-19T09:51:39;29.90;46.30
38325;DHT22;24126;52.672;13.622;2023-09-19T09:54:11;29.90;46.40
38325;DHT22;24126;52.672;13.622;2023-09-19T09:56:59;30.10;46.30
38325;DHT22;24126;52.672;13.622;2023-09-19T10:02:13;30.30;45.00
38325;DHT22;24126;52.672;13.622;2023-09-19T10:04:48;30.30;44.30
38325;DHT22;24126;52.672;13.622;2023-09-19T10:07:28;30.20;44.00
38325;DHT22;24126;52.672;13.622;2023-09-19T10:09:59;30.00;43.80
38325;DHT22;24126;52.672;13.622;2023-09-19T10:12:37;29.70;44.00
38325;DHT22;24126;52.672;13.622;2023-09-19T10:15:05;29.60;44.70
38325;DHT22;24126;52.672;13.622;2023-09-19T10:17:34;29.70;45.00
38325;DHT22;24126;52.672;13.622;2023-09-19T10:20:02;29.70;44.80
38325;DHT22;24126;52.672;13.622;2023-09-19T10:22:35;29.80;45.30
38325;DHT22;24126;52.672;13.622;2023-09-19T10:25:04;29.80;44.50
38325;DHT22;24126;52.672;13.622;2023-09-19T10:27:32;29.80;44.20
38325;DHT22;24126;52.672;13.622;2023-09-19T10:30:06;29.70;43.60
38325;DHT22;24126;52.672;13.622;2023-09-19T10:32:35;29.60;43.50
38325;DHT22;24126;52.672;13.622;2023-09-19T10:35:04;29.50;43.40
38325;DHT22;24126;52.672;13.622;2023-09-19T10:37:32;29.40;43.50
38325;DHT22;24126;52.672;13.622;2023-09-19T10:40:00;29.30;43.80
38325;DHT22;24126;52.672;13.622;2023-09-19T10:42:28;29.30;44.10
38325;DHT22;24126;52.672;13.622;2023-09-19T10:44:55;29.20;43.40
38325;DHT22;24126;52.672;13.622;2023-09-19T10:47:28;29.10;43.70
38325;DHT22;24126;52.672;13.622;2023-09-19T10:49:56;29.00;44.20
38325;DHT22;24126;52.672;13.622;2023-09-19T10:52:25;29.00;43.80
38325;DHT22;24126;52.672;13.622;2023-09-19T10:54:55;29.00;43.20
38325;DHT22;24126;52.672;13.622;2023-09-19T10:57:24;28.90;43.00
38325;DHT22;24126;52.672;13.622;2023-09-19T11:00:03;28.70;42.80
38325;DHT22;24126;52.672;13.622;2023-09-19T11:05:32;28.70;43.30
38325;DHT22;24126;52.672;13.622;2023-09-19T11:08:00;28.80;43.00
38325;DHT22;24126;52.672;13.622;2023-09-19T11:10:48;28.90;42.70
38325;DHT22;24126;52.672;13.622;2023-09-19T11:13:23;28.80;42.40
38325;DHT22;24126;52.672;13.622;2023-09-19T11:26:41;28.90;41.90
38325;DHT22;24126;52.672;13.622;2023-09-19T11:29:29;29.00;41.80
38325;DHT22;24126;52.672;13.622;2023-09-19T11:31:57;28.90;41.80
38325;DHT22;24126;52.672;13.622;2023-09-19T11:34:40;28.80;41.50
38325;DHT22;24126;52.672;13.622;2023-09-19T11:42:43;28.70;41.70
38325;DHT22;24126;52.672;13.622;2023-09-19T11:47:57;28.70;41.40
38325;DHT22;24126;52.672;13.622;2023-09-19T11:50:25;28.70;41.90
38325;DHT22;24126;52.672;13.622;2023-09-19T11:52:53;28.80;41.90
38325;DHT22;24126;52.672;13.622;2023-09-19T11:55:21;28.80;41.60
38325;DHT22;24126;52.672;13.622;2023-09-19T11:57:48;28.80;41.50
38325;DHT22;24126;52.672;13.622;2023-09-19T12:00:17;28.90;41.40
38325;DHT22;24126;52.672;13.622;2023-09-19T12:02:46;28.80;41.20
38325;DHT22;24126;52.672;13.622;2023-09-19T12:05:14;28.80;41.10
38325;DHT22;24126;52.672;13.622;2023-09-19T12:07:43;28.70;41.00
38325;DHT22;24126;52.672;13.622;2023-09-19T12:10:11;28.60;40.80
38325;DHT22;24126;52.672;13.622;2023-09-19T12:12:48;28.50;40.80
38325;DHT22;24126;52.672;13.622;2023-09-19T12:15:24;28.40;41.00
38325;DHT22;24126;52.672;13.622;2023-09-19T12:17:54;28.30;41.30
38325;DHT22;24126;52.672;13.622;2023-09-19T12:20:21;28.30;40.90
38325;DHT22;24126;52.672;13.622;2023-09-19T12:22:49;28.20;40.80
38325;DHT22;24126;52.672;13.622;2023-09-19T12:25:16;28.10;40.80
38325;DHT22;24126;52.672;13.622;2023-09-19T12:27:44;28.00;41.10
38325;DHT22;24126;52.672;13.622;2023-09-19T12:30:13;28.00;41.10
38325;DHT22;24126;52.672;13.622;2023-09-19T12:32:40;27.90;40.80
38325;DHT22;24126;52.672;13.622;2023-09-19T12:35:08;27.90;41.00
38325;DHT22;24126;52.672;13.622;2023-09-19T12:37:37;27.90;41.10
38325;DHT22;24126;52.672;13.622;2023-09-19T12:40:04;27.90;40.60
38325;DHT22;24126;52.672;13.622;2023-09-19T12:42:43;27.90;40.70
38325;DHT22;24126;52.672;13.622;2023-09-19T12:45:11;27.90;40.80
38325;DHT22;24126;52.672;13.622;2023-09-19T12:48:17;27.90;41.00
38325;DHT22;24126;52.672;13.622;2023-09-19T12:50:28;27.90;40.90
38325;DHT22;24126;52.672;13.622;2023-09-19T12:52:55;27.80;40.80
38325;DHT22;24126;52.672;13.622;2023-09-19T12:55:29;27.80;41.00
38325;DHT22;24126;52.672;13.622;2023-09-19T12:58:08;27.80;41.00
38325;DHT22;24126;52.672;13.622;2023-09-19T13:00:37;27.80;41.10
38325;DHT22;24126;52.672;13.622;2023-09-19T13:03:11;27.80;41.10
38325;DHT22;24126;52.672;13.622;2023-09-19T13:05:47;27.70;40.90
38325;DHT22;24126;52.672;13.622;2023-09-19T13:08:18;27.70;40.90
38325;DHT22;24126;52.672;13.622;2023-09-19T13:11:09;27.60;41.00
38325;DHT22;24126;52.672;13.622;2023-09-19T13:13:48;27.50;40.10
38325;DHT22;24126;52.672;13.622;2023-09-19T13:16:21;27.40;40.10
38325;DHT22;24126;52.672;13.622;2023-09-19T13:18:57;27.30;40.20
38325;DHT22;24126;52.672;13.622;2023-09-19T13:21:31;27.30;40.30
38325;DHT22;24126;52.672;13.622;2023-09-19T13:26:45;27.20;40.80
38325;DHT22;24126;52.672;13.622;2023-09-19T13:29:12;27.10;40.70
38325;DHT22;24126;52.672;13.622;2023-09-19T13:31:40;27.10;40.60
38325;DHT22;24126;52.672;13.622;2023-09-19T13:34:07;27.00;40.80
38325;DHT22;24126;52.672;13.622;2023-09-19T13:36:34;27.00;40.80
38325;DHT22;24126;52.672;13.622;2023-09-19T13:39:03;26.90;40.80
38325;DHT22;24126;52.672;13.622;2023-09-19T13:41:31;26.90;40.80
38325;DHT22;24126;52.672;13.622;2023-09-19T13:43:58;26.90;40.90
38325;DHT22;24126;52.672;13.622;2023-09-19T13:46:25;26.80;40.70
38325;DHT22;24126;52.672;13.622;2023-09-19T13:48:53;26.80;41.00
38325;DHT22;24126;52.672;13.622;2023-09-19T13:51:20;26.80;41.00
38325;DHT22;24126;52.672;13.622;2023-09-19T13:53:48;26.80;41.00
38325;DHT22;24126;52.672;13.622;2023-09-19T13:56:16;26.70;41.10
38325;DHT22;24126;52.672;13.622;2023-09-19T13:58:43;26.70;41.10
38325;DHT22;24126;52.672;13.622;2023-09-19T14:01:10;26.60;41.30
38325;DHT22;24126;52.672;13.622;2023-09-19T14:03:39;26.60;41.30
38325;DHT22;24126;52.672;13.622;2023-09-19T14:06:06;26.60;41.60
38325;DHT22;24126;52.672;13.622;2023-09-19T14:08:33;26.60;41.80
38325;DHT22;24126;52.672;13.622;2023-09-19T14:11:05;26.50;42.00
38325;DHT22;24126;52.672;13.622;2023-09-19T14:13:32;26.50;41.80
38325;DHT22;24126;52.672;13.622;2023-09-19T14:16:06;26.50;41.90
38325;DHT22;24126;52.672;13.622;2023-09-19T14:18:34;26.50;42.00
38325;DHT22;24126;52.672;13.622;2023-09-19T14:21:03;26.50;42.00
38325;DHT22;24126;52.672;13.622;2023-09-19T14:23:36;26.50;42.00
38325;DHT22;24126;52.672;13.622;2023-09-19T14:26:04;26.40;41.70
38325;DHT22;24126;52.672;13.622;2023-09-19T14:28:32;26.40;42.00
38325;DHT22;24126;52.672;13.622;2023-09-19T14:31:09;26.40;42.30
38325;DHT22;24126;52.672;13.622;2023-09-19T14:33:38;26.40;42.70
38325;DHT22;24126;52.672;13.622;2023-09-19T14:36:09;26.40;42.60
38325;DHT22;24126;52.672;13.622;2023-09-19T14:38:37;26.30;42.20
38325;DHT22;24126;52.672;13.622;2023-09-19T14:41:05;26.30;42.00
38325;DHT22;24126;52.672;13.622;2023-09-19T14:43:33;26.30;42.30
38325;DHT22;24126;52.672;13.622;2023-09-19T14:46:03;26.20;42.00
38325;DHT22;24126;52.672;13.622;2023-09-19T14:48:30;26.20;42.50
38325;DHT22;24126;52.672;13.622;2023-09-19T14:51:01;26.20;42.30
38325;DHT22;24126;52.672;13.622;2023-09-19T14:53:28;26.20;42.20
38325;DHT22;24126;52.672;13.622;2023-09-19T14:55:55;26.10;42.90
38325;DHT22;24126;52.672;13.622;2023-09-19T14:58:22;26.10;42.60
38325;DHT22;24126;52.672;13.622;2023-09-19T15:00:51;26.10;42.80
38325;DHT22;24126;52.672;13.622;2023-09-19T15:03:19;26.00;42.50
38325;DHT22;24126;52.672;13.622;2023-09-19T15:05:46;26.00;42.50
38325;DHT22;24126;52.672;13.622;2023-09-19T15:08:13;26.00;42.80
38325;DHT22;24126;52.672;13.622;2023-09-19T15:10:41;26.00;42.90
38325;DHT22;24126;52.672;13.622;2023-09-19T15:13:15;26.00;43.00
38325;DHT22;24126;52.672;13.622;2023-09-19T15:15:42;26.00;43.10
38325;DHT22;24126;52.672;13.622;2023-09-19T15:18:15;26.00;43.20
38325;DHT22;24126;52.672;13.622;2023-09-19T15:20:45;26.00;43.20
38325;DHT22;24126;52.672;13.622;2023-09-19T15:23:13;26.00;43.70
38325;DHT22;24126;52.672;13.622;2023-09-19T15:25:47;25.90;44.10
38325;DHT22;24126;52.672;13.622;2023-09-19T15:28:14;25.90;43.80
38325;DHT22;24126;52.672;13.622;2023-09-19T15:30:41;25.90;43.50
38325;DHT22;24126;52.672;13.622;2023-09-19T15:33:08;25.90;43.50
38325;DHT22;24126;52.672;13.622;2023-09-19T15:35:36;25.80;43.50
38325;DHT22;24126;52.672;13.622;2023-09-19T15:38:04;25.80;43.40
38325;DHT22;24126;52.672;13.622;2023-09-19T15:40:31;25.80;43.80
38325;DHT22;24126;52.672;13.622;2023-09-19T15:42:58;25.80;43.60
38325;DHT22;24126;52.672;13.622;2023-09-19T15:45:26;25.70;43.70
38325;DHT22;24126;52.672;13.622;2023-09-19T15:47:53;25.70;43.60
38325;DHT22;24126;52.672;13.622;2023-09-19T15:50:21;25.70;43.50
38325;DHT22;24126;52.672;13.622;2023-09-19T15:52:52;25.70;43.70
38325;DHT22;24126;52.672;13.622;2023-09-19T15:55:23;25.60;43.80
38325;DHT22;24126;52.672;13.622;2023-09-19T15:57:51;25.60;43.70
38325;DHT22;24126;52.672;13.622;2023-09-19T16:00:22;25.50;43.40
38325;DHT22;24126;52.672;13.622;2023-09-19T16:02:49;25.50;43.40
38325;DHT22;24126;52.672;13.622;2023-09-19T16:05:16;25.40;43.40
38325;DHT22;24126;52.672;13.622;2023-09-19T16:07:43;25.40;43.80
38325;DHT22;24126;52.672;13.622;2023-09-19T16:10:10;25.40;43.60